Time;durP1;ratioP1;P1;durP2;ratioP2;P2;SDS_P1;SDS_P2;PMS_P1;PMS_P2;Temp;Humidity;BMP_temperature;BMP_pressure;BME280_temperature;BME280_humidity;BME280_pressure;Samples;Min_cycle;Max_cycle;Signal;HPM_P1;HPM_P2
2023/01/24 00:00:47;;;;;;;16.50;9.40;;;;;;;;;;5050621;28;20206;-39
2023/01/24 00:03:25;;;;;;;15.93;8.83;;;;;;;;;;5046696;28;20222;-41
2023/01/24 00:06:02;;;;;;;16.60;8.37;;;;;;;;;;5044501;28;20288;-35
2023/01/24 00:08:30;;;;;;;9.70;6.23;;;;;;;;;;5040614;28;20225;-32
2023/01/24 00:11:00;;;;;;;12.27;6.33;;;;;;;;;;5046031;28;20210;-38
2023/01/24 00:13:31;;;;;;;11.00;7.07;;;;;;;;;;5053026;28;20224;-37
2023/01/24 00:16:10;;;;;;;12.97;7.93;;;;;;;;;;5049748;28;20244;-36
2023/01/24 00:18:41;;;;;;;4.00;3.23;;;;;;;;;;5046843;28;20294;-37
2023/01/24 00:21:12;;;;;;;11.90;7.77;;;;;;;;;;5049297;28;20206;-38
2023/01/24 00:23:43;;;;;;;13.53;7.67;;;;;;;;;;5044753;28;20688;-37
2023/01/24 00:26:18;;;;;;;13.77;9.13;;;;;;;;;;5043521;28;20209;-40
2023/01/24 00:28:50;;;;;;;5.47;3.33;;;;;;;;;;5037439;28;20260;-35
2023/01/24 00:31:21;;;;;;;13.03;8.23;;;;;;;;;;5039286;28;20719;-40
2023/01/24 00:33:52;;;;;;;9.87;6.47;;;;;;;;;;5050724;28;20650;-35
2023/01/24 00:36:22;;;;;;;9.93;6.27;;;;;;;;;;5045975;28;20207;-39
2023/01/24 00:38:51;;;;;;;11.50;7.30;;;;;;;;;;5042856;28;20226;-40
2023/01/24 00:41:25;;;;;;;12.30;6.83;;;;;;;;;;5049395;28;20282;-37
2023/01/24 00:46:41;;;;;;;12.37;8.13;;;;;;;;;;5048588;28;20213;-36
2023/01/24 00:49:08;;;;;;;13.70;7.77;;;;;;;;;;5049305;28;20229;-37
2023/01/24 00:51:42;;;;;;;14.00;7.80;;;;;;;;;;5037632;28;20237;-38
2023/01/24 00:54:09;;;;;;;13.87;7.57;;;;;;;;;;5048319;28;20226;-36
2023/01/24 00:56:49;;;;;;;12.87;7.70;;;;;;;;;;5045483;28;20297;-37
2023/01/24 00:59:21;;;;;;;12.83;6.87;;;;;;;;;;5041682;28;20208;-37
2023/01/24 01:01:50;;;;;;;9.73;5.40;;;;;;;;;;5042918;28;20284;-38
2023/01/24 01:04:22;;;;;;;9.40;6.23;;;;;;;;;;5042560;28;20226;-34
2023/01/24 01:06:50;;;;;;;20.50;10.90;;;;;;;;;;5045578;28;20549;-36
2023/01/24 01:09:24;;;;;;;10.20;6.07;;;;;;;;;;5042233;28;20232;-39
2023/01/24 01:11:51;;;;;;;15.03;9.57;;;;;;;;;;5043434;28;20267;-37
2023/01/24 01:14:23;;;;;;;12.67;7.87;;;;;;;;;;5033238;28;20224;-33
2023/01/24 01:16:51;;;;;;;10.47;6.53;;;;;;;;;;5036368;28;20225;-37
2023/01/24 01:19:19;;;;;;;12.43;7.47;;;;;;;;;;5042009;28;20286;-33
2023/01/24 01:21:49;;;;;;;13.43;7.43;;;;;;;;;;5045091;28;20568;-36
2023/01/24 01:24:16;;;;;;;11.37;6.93;;;;;;;;;;5040139;28;20234;-36
2023/01/24 01:26:50;;;;;;;17.33;9.53;;;;;;;;;;5043733;28;20212;-33
2023/01/24 01:29:18;;;;;;;13.00;8.10;;;;;;;;;;5035129;28;20235;-39
2023/01/24 01:31:47;;;;;;;12.83;8.40;;;;;;;;;;5047180;28;20202;-39
2023/01/24 01:34:20;;;;;;;14.60;9.00;;;;;;;;;;5039868;28;20218;-35
2023/01/24 01:36:52;;;;;;;14.37;8.33;;;;;;;;;;5049281;28;20210;-31
2023/01/24 01:39:21;;;;;;;16.40;9.23;;;;;;;;;;5038816;28;20283;-33
2023/01/24 01:41:50;;;;;;;17.40;9.03;;;;;;;;;;5043854;28;20204;-36
2023/01/24 01:44:40;;;;;;;13.57;8.17;;;;;;;;;;5045319;28;20230;-39
2023/01/24 01:47:16;;;;;;;13.47;7.93;;;;;;;;;;5049659;28;20205;-33
2023/01/24 01:49:57;;;;;;;12.87;8.13;;;;;;;;;;5045785;28;20687;-35
2023/01/24 01:52:33;;;;;;;13.60;8.37;;;;;;;;;;5037438;28;20218;-39
2023/01/24 01:55:02;;;;;;;12.60;7.53;;;;;;;;;;5039248;28;20244;-41
2023/01/24 01:57:35;;;;;;;13.60;8.27;;;;;;;;;;5036490;28;20212;-40
2023/01/24 02:00:07;;;;;;;9.83;5.50;;;;;;;;;;5038246;28;20199;-35
2023/01/24 02:02:39;;;;;;;18.27;8.97;;;;;;;;;;5042853;28;20202;-39
2023/01/24 02:05:17;;;;;;;14.13;8.93;;;;;;;;;;5051347;28;20475;-37
2023/01/24 02:07:49;;;;;;;15.83;9.10;;;;;;;;;;5043606;28;20676;-41
2023/01/24 02:10:17;;;;;;;14.83;7.87;;;;;;;;;;5047592;28;20240;-37
2023/01/24 02:12:47;;;;;;;14.80;9.00;;;;;;;;;;5053439;28;20263;-35
2023/01/24 02:18:10;;;;;;;18.40;11.17;;;;;;;;;;5045604;28;20204;-41
2023/01/24 02:20:48;;;;;;;15.13;8.73;;;;;;;;;;5051186;28;20201;-39
2023/01/24 02:23:27;;;;;;;15.83;9.83;;;;;;;;;;5046777;28;20228;-35
2023/01/24 02:26:07;;;;;;;16.80;9.27;;;;;;;;;;5043306;28;20201;-38
2023/01/24 02:28:41;;;;;;;14.33;9.30;;;;;;;;;;5053558;28;20320;-38
2023/01/24 02:31:13;;;;;;;16.73;8.83;;;;;;;;;;5044016;28;20205;-40
2023/01/24 02:33:42;;;;;;;11.53;7.80;;;;;;;;;;5055069;28;20225;-37
2023/01/24 02:36:17;;;;;;;20.90;10.60;;;;;;;;;;5053349;28;20304;-41
2023/01/24 02:38:57;;;;;;;15.67;8.60;;;;;;;;;;5049573;28;20201;-38
2023/01/24 02:41:35;;;;;;;16.17;9.27;;;;;;;;;;5049146;28;20207;-40
2023/01/24 02:44:09;;;;;;;16.43;8.60;;;;;;;;;;5051689;28;20355;-40
2023/01/24 02:46:47;;;;;;;19.30;10.53;;;;;;;;;;5053391;28;20205;-39
2023/01/24 02:49:17;;;;;;;16.00;9.43;;;;;;;;;;5055096;28;20324;-41
2023/01/24 02:54:39;;;;;;;14.90;8.53;;;;;;;;;;5028238;28;20232;-35
2023/01/24 03:00:02;;;;;;;17.83;8.80;;;;;;;;;;5048050;28;20577;-35
2023/01/24 03:02:33;;;;;;;15.03;7.53;;;;;;;;;;5047417;28;20680;-39
2023/01/24 03:05:09;;;;;;;15.87;8.40;;;;;;;;;;5055005;28;20216;-31
2023/01/24 03:07:46;;;;;;;17.53;8.90;;;;;;;;;;5055335;28;20259;-36
2023/01/24 03:10:23;;;;;;;15.50;8.60;;;;;;;;;;5039989;28;20222;-37
2023/01/24 03:35:17;;;;;;;17.07;8.53;;;;;;;;;;5057730;28;20252;-34
2023/01/24 03:40:40;;;;;;;15.00;8.60;;;;;;;;;;5047275;28;20291;-39
2023/01/24 03:43:16;;;;;;;12.80;8.60;;;;;;;;;;5054248;28;20245;-34
2023/01/24 03:46:01;;;;;;;14.67;7.87;;;;;;;;;;5040841;28;20201;-42
2023/01/24 03:48:34;;;;;;;13.67;8.00;;;;;;;;;;5051404;28;20312;-35
2023/01/24 03:53:54;;;;;;;10.30;5.87;;;;;;;;;;5033041;28;20301;-39
2023/01/24 03:56:25;;;;;;;15.07;8.37;;;;;;;;;;5050442;28;20206;-37
2023/01/24 03:58:56;;;;;;;14.80;7.80;;;;;;;;;;5044388;28;20202;-35
2023/01/24 04:01:28;;;;;;;16.03;8.83;;;;;;;;;;5039033;28;20280;-37
2023/01/24 04:04:05;;;;;;;15.53;9.10;;;;;;;;;;5053222;28;20229;-34
2023/01/24 04:06:37;;;;;;;13.17;7.90;;;;;;;;;;5053936;28;20297;-37
2023/01/24 04:09:12;;;;;;;10.83;6.50;;;;;;;;;;5050369;28;20222;-36
2023/01/24 04:11:48;;;;;;;13.90;8.20;;;;;;;;;;5051364;28;20205;-36
2023/01/24 04:14:18;;;;;;;14.10;8.77;;;;;;;;;;5047575;28;20276;-36
2023/01/24 04:16:49;;;;;;;9.80;5.97;;;;;;;;;;5046021;28;20214;-35
2023/01/24 04:19:16;;;;;;;14.40;9.20;;;;;;;;;;5054920;28;20221;-33
2023/01/24 04:21:47;;;;;;;9.40;5.83;;;;;;;;;;5053291;28;20708;-39
2023/01/24 04:24:17;;;;;;;13.57;7.43;;;;;;;;;;5047596;28;20280;-31
2023/01/24 04:26:47;;;;;;;14.20;8.70;;;;;;;;;;5053058;28;20210;-36
2023/01/24 04:29:17;;;;;;;16.53;8.83;;;;;;;;;;5051713;28;20222;-39
2023/01/24 04:31:50;;;;;;;14.70;8.20;;;;;;;;;;5042077;28;20198;-40
2023/01/24 04:34:18;;;;;;;15.47;8.20;;;;;;;;;;5044285;28;20229;-39
2023/01/24 04:36:48;;;;;;;16.27;9.27;;;;;;;;;;5052096;28;20293;-35
2023/01/24 04:39:20;;;;;;;19.97;10.10;;;;;;;;;;5050415;28;20721;-38
2023/01/24 04:41:53;;;;;;;18.30;9.40;;;;;;;;;;5044870;28;20225;-38
2023/01/24 04:44:25;;;;;;;2.77;1.33;;;;;;;;;;5046702;28;20688;-34
2023/01/24 04:46:54;;;;;;;16.70;9.37;;;;;;;;;;5046264;28;20212;-35
2023/01/24 04:49:28;;;;;;;16.87;10.07;;;;;;;;;;5051774;28;20225;-37
2023/01/24 04:52:01;;;;;;;16.60;9.17;;;;;;;;;;5051610;28;20845;-36
2023/01/24 04:54:34;;;;;;;16.30;8.90;;;;;;;;;;5047128;28;20245;-34
2023/01/24 04:57:06;;;;;;;15.07;8.10;;;;;;;;;;5052625;28;20205;-36
2023/01/24 04:59:38;;;;;;;15.97;9.67;;;;;;;;;;5048039;28;20206;-31
2023/01/24 05:02:14;;;;;;;18.90;9.43;;;;;;;;;;5042242;28;20229;-35
2023/01/24 05:04:44;;;;;;;17.47;8.87;;;;;;;;;;5051165;28;20519;-37
2023/01/24 05:07:16;;;;;;;17.97;9.17;;;;;;;;;;5046405;28;20712;-38
2023/01/24 05:09:47;;;;;;;16.53;9.50;;;;;;;;;;5040066;28;20229;-40
2023/01/24 05:12:22;;;;;;;15.67;9.37;;;;;;;;;;5048004;28;20198;-37
2023/01/24 05:14:54;;;;;;;15.10;8.47;;;;;;;;;;5045803;28;20225;-35
2023/01/24 05:17:29;;;;;;;16.07;9.13;;;;;;;;;;5049475;28;20652;-37
2023/01/24 05:20:05;;;;;;;15.23;9.20;;;;;;;;;;5052054;28;20198;-38
2023/01/24 05:22:33;;;;;;;14.40;8.30;;;;;;;;;;5039182;28;20206;-33
2023/01/24 05:25:03;;;;;;;17.83;9.30;;;;;;;;;;5038949;28;20202;-40
2023/01/24 05:27:37;;;;;;;13.90;8.70;;;;;;;;;;5051920;28;20633;-37
2023/01/24 05:30:05;;;;;;;13.87;8.87;;;;;;;;;;5042572;28;20257;-42
2023/01/24 05:32:39;;;;;;;15.23;9.40;;;;;;;;;;5044344;28;20229;-32
2023/01/24 05:35:13;;;;;;;15.40;9.70;;;;;;;;;;5052350;28;20204;-34
2023/01/24 05:37:45;;;;;;;14.93;9.23;;;;;;;;;;5047321;28;20270;-37
2023/01/24 05:40:13;;;;;;;16.57;9.20;;;;;;;;;;5051523;28;20202;-43
2023/01/24 05:42:42;;;;;;;14.90;8.37;;;;;;;;;;5051148;28;20226;-39
2023/01/24 05:45:12;;;;;;;13.47;8.23;;;;;;;;;;5046970;28;20194;-39
2023/01/24 05:47:42;;;;;;;15.73;8.60;;;;;;;;;;5047362;28;20225;-36
2023/01/24 05:50:12;;;;;;;14.83;9.67;;;;;;;;;;5051923;28;20581;-38
2023/01/24 05:52:55;;;;;;;15.70;9.97;;;;;;;;;;5051003;28;20209;-39
2023/01/24 05:55:23;;;;;;;13.47;7.63;;;;;;;;;;5043580;28;20231;-36
2023/01/24 05:57:52;;;;;;;16.40;8.83;;;;;;;;;;5052007;28;20202;-43
2023/01/24 06:00:26;;;;;;;16.37;8.33;;;;;;;;;;5043315;28;20193;-39
2023/01/24 06:03:10;;;;;;;12.30;6.93;;;;;;;;;;5048953;28;20225;-33
2023/01/24 06:05:48;;;;;;;8.67;6.07;;;;;;;;;;5047738;28;20206;-39
2023/01/24 06:08:18;;;;;;;14.40;8.83;;;;;;;;;;5050409;28;20232;-39
2023/01/24 06:10:52;;;;;;;17.43;8.87;;;;;;;;;;5047588;28;20218;-36
2023/01/24 06:13:24;;;;;;;15.87;7.73;;;;;;;;;;5044371;28;20239;-32
2023/01/24 06:16:05;;;;;;;18.33;9.23;;;;;;;;;;5030642;28;20209;-38
2023/01/24 06:18:39;;;;;;;16.50;9.67;;;;;;;;;;5048711;28;20197;-37
2023/01/24 06:21:18;;;;;;;12.10;6.83;;;;;;;;;;5051870;28;20206;-35
2023/01/24 06:23:50;;;;;;;17.00;9.20;;;;;;;;;;5048600;28;20226;-37
2023/01/24 06:29:19;;;;;;;15.00;9.17;;;;;;;;;;5039981;28;20316;-39
2023/01/24 06:31:53;;;;;;;16.20;8.87;;;;;;;;;;5048827;28;20256;-33
2023/01/24 06:34:35;;;;;;;14.17;8.13;;;;;;;;;;5050450;28;20228;-41
2023/01/24 06:37:10;;;;;;;13.53;8.73;;;;;;;;;;5054833;28;20198;-37
2023/01/24 06:39:39;;;;;;;14.33;8.07;;;;;;;;;;5043910;28;20457;-36
2023/01/24 06:42:14;;;;;;;15.87;8.90;;;;;;;;;;5049111;28;20218;-32
2023/01/24 06:44:42;;;;;;;14.07;7.43;;;;;;;;;;5047303;28;20241;-40
2023/01/24 06:47:11;;;;;;;8.80;4.90;;;;;;;;;;5049643;28;20251;-39
2023/01/24 06:49:42;;;;;;;17.20;9.47;;;;;;;;;;5049047;28;20229;-41
2023/01/24 06:52:10;;;;;;;14.73;8.57;;;;;;;;;;5045903;28;20217;-36
2023/01/24 06:54:37;;;;;;;15.07;8.20;;;;;;;;;;5048701;28;20233;-42
2023/01/24 06:57:08;;;;;;;17.90;9.73;;;;;;;;;;5051165;28;20279;-32
2023/01/24 06:59:38;;;;;;;17.37;9.70;;;;;;;;;;5049407;28;20210;-41
2023/01/24 07:02:05;;;;;;;14.57;8.80;;;;;;;;;;5047427;28;20266;-35
2023/01/24 07:04:33;;;;;;;16.87;11.70;;;;;;;;;;5049246;28;20728;-39
2023/01/24 07:07:01;;;;;;;22.53;19.57;;;;;;;;;;5049726;28;20206;-38
2023/01/24 07:09:28;;;;;;;15.77;11.67;;;;;;;;;;5042082;28;20225;-39
2023/01/24 07:11:57;;;;;;;18.03;14.13;;;;;;;;;;5047566;28;20636;-31
2023/01/24 07:14:28;;;;;;;17.47;12.90;;;;;;;;;;5056978;28;20312;-31
2023/01/24 07:16:57;;;;;;;17.33;11.93;;;;;;;;;;5053817;28;20221;-36
2023/01/24 07:19:25;;;;;;;13.07;8.67;;;;;;;;;;5053390;28;20205;-37
2023/01/24 07:21:53;;;;;;;15.93;8.60;;;;;;;;;;5053845;28;20465;-39
2023/01/24 07:24:23;;;;;;;15.97;10.33;;;;;;;;;;5047286;28;20329;-35
2023/01/24 07:26:51;;;;;;;22.30;15.60;;;;;;;;;;5045065;28;20210;-41
2023/01/24 07:29:27;;;;;;;20.77;13.13;;;;;;;;;;5048036;28;20198;-38
2023/01/24 07:32:00;;;;;;;16.87;10.37;;;;;;;;;;5046246;28;20201;-35
2023/01/24 07:34:29;;;;;;;15.33;9.47;;;;;;;;;;5055867;28;20786;-37
2023/01/24 07:36:57;;;;;;;14.20;7.90;;;;;;;;;;5041020;28;20210;-34
2023/01/24 07:39:31;;;;;;;16.17;10.63;;;;;;;;;;5033732;28;20355;-37
2023/01/24 07:42:03;;;;;;;21.63;11.03;;;;;;;;;;5046380;28;20209;-38
2023/01/24 07:44:30;;;;;;;29.47;14.57;;;;;;;;;;5046497;28;20785;-33
2023/01/24 07:46:58;;;;;;;17.77;9.37;;;;;;;;;;5043469;28;20210;-33
2023/01/24 07:49:25;;;;;;;13.87;10.17;;;;;;;;;;5053314;28;20206;-34
2023/01/24 07:51:52;;;;;;;17.20;10.97;;;;;;;;;;5054207;28;20252;-37
2023/01/24 08:07:20;;;;;;;14.73;10.00;;;;;;;;;;5053985;28;20218;-28
2023/01/24 08:09:47;;;;;;;14.83;8.63;;;;;;;;;;5055953;28;20221;-28
2023/01/24 08:12:14;;;;;;;13.60;9.27;;;;;;;;;;5055928;28;20214;-30
2023/01/24 08:27:34;;;;;;;13.43;8.23;;;;;;;;;;5034790;28;20210;-28
2023/01/24 08:30:03;;;;;;;13.47;8.00;;;;;;;;;;5035270;28;20230;-28
2023/01/24 08:45:23;;;;;;;15.33;8.13;;;;;;;;;;5053797;28;20222;-27
2023/01/24 08:47:52;;;;;;;12.17;7.93;;;;;;;;;;5055503;28;20213;-28
2023/01/24 08:50:20;;;;;;;12.43;8.23;;;;;;;;;;5055243;28;20228;-30
2023/01/24 09:05:48;;;;;;;14.53;8.70;;;;;;;;;;5033750;28;20229;-26
2023/01/24 09:08:19;;;;;;;14.40;8.03;;;;;;;;;;5034911;28;20245;-28
2023/01/24 09:10:47;;;;;;;13.07;7.87;;;;;;;;;;5035345;28;20213;-26
2023/01/24 09:29:07;;;;;;;13.47;8.17;;;;;;;;;;5005373;28;20223;-31
2023/01/24 09:32:15;;;;;;;;;;;;;;;;;;;;;
2023/01/24 09:42:50;;;;;;;10.97;7.03;;;;;;;;;;5034230;28;20186;-29
2023/01/24 09:45:29;;;;;;;10.97;6.50;;;;;;;;;;5033968;28;20207;-29
2023/01/24 09:48:07;;;;;;;10.00;6.40;;;;;;;;;;5034362;28;20230;-31
2023/01/24 09:50:59;;;;;;;12.63;7.23;;;;;;;;;;5034272;28;20230;-33
2023/01/24 09:53:34;;;;;;;7.33;3.33;;;;;;;;;;5013612;28;20222;-32
2023/01/24 09:56:12;;;;;;;12.00;6.60;;;;;;;;;;5034249;28;20262;-30
2023/01/24 09:58:54;;;;;;;13.70;7.83;;;;;;;;;;5034317;28;20209;-28
2023/01/24 10:09:41;;;;;;;10.07;6.43;;;;;;;;;;5032004;28;20226;-31
2023/01/24 10:12:18;;;;;;;9.83;6.60;;;;;;;;;;5034598;28;20237;-29
2023/01/24 10:15:36;;;;;;;;;;;;;;;;;;;;;
2023/01/24 10:18:20;;;;;;;13.20;6.57;;;;;;;;;;5033911;28;20206;-27
2023/01/24 10:21:09;;;;;;;11.83;7.33;;;;;;;;;;5033176;28;20207;-27
2023/01/24 10:23:57;;;;;;;11.67;6.77;;;;;;;;;;5033072;28;20309;-30
2023/01/24 10:26:38;;;;;;;8.80;5.63;;;;;;;;;;5032899;28;20305;-26
2023/01/24 10:29:24;;;;;;;8.77;6.00;;;;;;;;;;5033031;28;20206;-28
2023/01/24 10:32:00;;;;;;;11.33;7.47;;;;;;;;;;5033576;28;20214;-31
2023/01/24 10:34:39;;;;;;;11.80;7.43;;;;;;;;;;5032313;28;20234;-27
2023/01/24 10:37:25;;;;;;;10.60;7.27;;;;;;;;;;5032842;28;20522;-30
2023/01/24 10:40:02;;;;;;;11.00;7.50;;;;;;;;;;5033001;28;20214;-29
2023/01/24 10:42:38;;;;;;;15.17;8.80;;;;;;;;;;5032418;28;20226;-28
2023/01/24 10:45:21;;;;;;;10.13;6.53;;;;;;;;;;5031857;28;20191;-29
2023/01/24 10:47:59;;;;;;;9.33;6.10;;;;;;;;;;5032865;28;20277;-27
2023/01/24 10:50:37;;;;;;;10.33;6.47;;;;;;;;;;5036337;28;20276;-26
2023/01/24 10:53:27;;;;;;;9.37;6.30;;;;;;;;;;5036323;28;20230;-29
2023/01/24 10:56:11;;;;;;;11.83;7.07;;;;;;;;;;5037023;28;20721;-30
2023/01/24 10:58:47;;;;;;;10.60;6.67;;;;;;;;;;5037355;28;20245;-26
2023/01/24 11:01:30;;;;;;;11.37;6.80;;;;;;;;;;5037003;28;20206;-29
2023/01/24 11:04:02;;;;;;;11.83;7.10;;;;;;;;;;5036413;28;20257;-27
2023/01/24 11:06:39;;;;;;;11.63;7.70;;;;;;;;;;5036444;28;20203;-33
2023/01/24 11:09:19;;;;;;;9.63;6.40;;;;;;;;;;5036035;28;20210;-31
2023/01/24 11:11:58;;;;;;;13.13;5.93;;;;;;;;;;5037114;28;20248;-31
2023/01/24 11:14:28;;;;;;;11.90;6.73;;;;;;;;;;5036962;28;20242;-29
2023/01/24 11:17:07;;;;;;;8.93;5.33;;;;;;;;;;5036600;28;20574;-26
2023/01/24 11:19:40;;;;;;;12.47;7.23;;;;;;;;;;5036945;28;20221;-28
2023/01/24 11:25:26;;;;;;;11.53;6.23;;;;;;;;;;5054162;28;20230;-31
2023/01/24 11:28:01;;;;;;;9.63;5.97;;;;;;;;;;5056772;28;20225;-26
2023/01/24 11:30:42;;;;;;;10.03;6.33;;;;;;;;;;5057401;28;20343;-27
2023/01/24 11:36:32;;;;;;;9.97;6.87;;;;;;;;;;5054952;28;20244;-31
2023/01/24 11:39:10;;;;;;;2.50;1.70;;;;;;;;;;5055877;28;20210;-31
2023/01/24 11:42:01;;;;;;;11.23;6.47;;;;;;;;;;5055901;28;20267;-29
2023/01/24 11:44:50;;;;;;;10.50;6.20;;;;;;;;;;5055133;28;20222;-31
2023/01/24 11:47:34;;;;;;;12.63;6.57;;;;;;;;;;5056314;28;20332;-31
2023/01/24 11:50:26;;;;;;;10.23;5.70;;;;;;;;;;5055543;28;20205;-27
2023/01/24 11:53:17;;;;;;;10.13;5.53;;;;;;;;;;5055943;28;20218;-30
2023/01/24 11:56:02;;;;;;;8.37;5.57;;;;;;;;;;5055084;28;20297;-27
2023/01/24 11:58:45;;;;;;;10.67;6.07;;;;;;;;;;5055259;28;20213;-30
2023/01/24 12:01:26;;;;;;;10.10;5.87;;;;;;;;;;5054660;28;20206;-31
2023/01/24 12:04:11;;;;;;;7.40;4.37;;;;;;;;;;5055014;28;20225;-30
2023/01/24 12:06:52;;;;;;;7.67;5.90;;;;;;;;;;5055316;28;20316;-32
2023/01/24 12:12:21;;;;;;;9.57;6.00;;;;;;;;;;5047395;28;20237;-25
2023/01/24 12:15:14;;;;;;;8.50;6.80;;;;;;;;;;5053743;28;20230;-29
2023/01/24 12:18:00;;;;;;;9.23;6.10;;;;;;;;;;5055042;28;20240;-29
2023/01/24 12:20:49;;;;;;;10.93;6.00;;;;;;;;;;5054603;28;20226;-31
2023/01/24 12:26:28;;;;;;;7.87;4.47;;;;;;;;;;5074822;28;20204;-30
2023/01/24 12:29:06;;;;;;;8.27;4.97;;;;;;;;;;5074364;28;20216;-26
2023/01/24 12:31:45;;;;;;;8.50;5.87;;;;;;;;;;5075283;28;20224;-30
2023/01/24 12:34:21;;;;;;;8.77;5.80;;;;;;;;;;5074613;28;20229;-25
2023/01/24 12:36:56;;;;;;;9.77;5.80;;;;;;;;;;5074843;28;20608;-32
2023/01/24 12:39:36;;;;;;;9.50;5.13;;;;;;;;;;5074124;28;20212;-29
2023/01/24 12:42:17;;;;;;;7.03;4.73;;;;;;;;;;5074418;28;20581;-27
2023/01/24 12:45:01;;;;;;;7.90;5.33;;;;;;;;;;5074232;28;20247;-26
2023/01/24 12:47:44;;;;;;;7.33;5.13;;;;;;;;;;5074111;28;20410;-29
2023/01/24 12:50:29;;;;;;;8.27;5.33;;;;;;;;;;5074259;28;20209;-27
2023/01/24 12:53:11;;;;;;;6.50;4.40;;;;;;;;;;5074267;28;20296;-30
2023/01/24 12:56:08;;;;;;;8.27;5.40;;;;;;;;;;5074163;28;20292;-26
2023/01/24 12:58:46;;;;;;;6.67;5.07;;;;;;;;;;5074442;28;20256;-30
2023/01/24 13:01:30;;;;;;;9.47;5.60;;;;;;;;;;5074034;28;20676;-31
2023/01/24 13:04:12;;;;;;;8.50;5.97;;;;;;;;;;5074066;28;20225;-32
2023/01/24 13:06:50;;;;;;;5.97;4.17;;;;;;;;;;5074403;28;20651;-25
2023/01/24 13:09:25;;;;;;;7.10;4.43;;;;;;;;;;5073130;28;20186;-29
2023/01/24 13:11:57;;;;;;;9.10;5.03;;;;;;;;;;5073419;28;20702;-31
2023/01/24 13:14:34;;;;;;;8.23;5.20;;;;;;;;;;5073511;28;20282;-30
2023/01/24 13:17:29;;;;;;;9.00;4.97;;;;;;;;;;5074005;28;20574;-28
2023/01/24 13:20:23;;;;;;;7.33;5.13;;;;;;;;;;5073675;28;20194;-26
2023/01/24 13:23:09;;;;;;;7.37;4.43;;;;;;;;;;5073874;28;20217;-31
2023/01/24 13:25:52;;;;;;;6.77;4.70;;;;;;;;;;5073430;28;20237;-31
2023/01/24 13:28:39;;;;;;;6.67;4.50;;;;;;;;;;5073782;28;20182;-28
2023/01/24 13:31:26;;;;;;;7.13;4.73;;;;;;;;;;5073137;28;20225;-28
2023/01/24 13:33:59;;;;;;;7.60;4.60;;;;;;;;;;5073678;28;20263;-29
2023/01/24 13:36:34;;;;;;;6.53;4.40;;;;;;;;;;5073892;28;20296;-28
2023/01/24 13:39:09;;;;;;;6.57;3.87;;;;;;;;;;5073168;28;20260;-26
2023/01/24 13:41:42;;;;;;;6.90;4.40;;;;;;;;;;5073496;28;20185;-30
2023/01/24 13:44:35;;;;;;;8.33;4.67;;;;;;;;;;5073067;28;20644;-28
2023/01/24 13:47:37;;;;;;;6.63;4.67;;;;;;;;;;5074155;28;20212;-28
2023/01/24 13:50:16;;;;;;;8.07;5.00;;;;;;;;;;5073276;28;20205;-28
2023/01/24 13:52:52;;;;;;;7.73;5.93;;;;;;;;;;5072194;28;20276;-34
2023/01/24 13:55:40;;;;;;;10.00;6.13;;;;;;;;;;5073220;28;20226;-25
2023/01/24 14:06:23;;;;;;;8.43;5.73;;;;;;;;;;5033074;28;20692;-28
2023/01/24 14:09:10;;;;;;;9.10;5.93;;;;;;;;;;5033988;28;20206;-30
2023/01/24 14:12:02;;;;;;;10.57;6.33;;;;;;;;;;5034392;28;20224;-32
2023/01/24 14:14:38;;;;;;;10.90;5.73;;;;;;;;;;5049363;28;20226;-30
2023/01/24 14:17:25;;;;;;;10.17;6.50;;;;;;;;;;5053009;28;20236;-30
2023/01/24 14:19:56;;;;;;;13.23;6.03;;;;;;;;;;5052723;28;20631;-27
2023/01/24 14:22:53;;;;;;;10.87;5.50;;;;;;;;;;5052065;28;20202;-28
2023/01/24 14:25:45;;;;;;;8.37;5.60;;;;;;;;;;5051259;28;20267;-31
2023/01/24 14:28:44;;;;;;;8.13;4.00;;;;;;;;;;5052933;28;20251;-28
2023/01/24 14:31:25;;;;;;;8.07;4.50;;;;;;;;;;5052659;28;20220;-31
2023/01/24 14:34:09;;;;;;;8.97;5.60;;;;;;;;;;5052102;28;20707;-30
2023/01/24 14:36:44;;;;;;;9.23;5.40;;;;;;;;;;5053039;28;20212;-30
2023/01/24 14:39:24;;;;;;;17.30;8.60;;;;;;;;;;5052781;28;20206;-30
2023/01/24 14:42:00;;;;;;;14.33;8.43;;;;;;;;;;5053172;28;20202;-29
2023/01/24 14:44:35;;;;;;;12.27;7.00;;;;;;;;;;5052135;28;20232;-28
2023/01/24 14:47:09;;;;;;;7.43;5.13;;;;;;;;;;5053171;28;20189;-27
2023/01/24 14:49:49;;;;;;;11.27;5.60;;;;;;;;;;5052608;28;20238;-29
2023/01/24 14:52:21;;;;;;;10.00;6.70;;;;;;;;;;5052172;28;20257;-26
2023/01/24 14:54:57;;;;;;;9.40;6.27;;;;;;;;;;5052418;28;20313;-29
2023/01/24 15:00:57;;;;;;;8.03;5.57;;;;;;;;;;5052223;28;20229;-28
2023/01/24 15:03:29;;;;;;;9.77;4.60;;;;;;;;;;5052465;28;20272;-26
2023/01/24 15:06:05;;;;;;;11.23;6.33;;;;;;;;;;5052469;28;20301;-31
2023/01/24 15:08:37;;;;;;;8.87;5.83;;;;;;;;;;5051735;28;20217;-29
2023/01/24 15:11:12;;;;;;;12.13;6.30;;;;;;;;;;5052791;28;20213;-32
2023/01/24 15:13:51;;;;;;;8.80;5.20;;;;;;;;;;5051479;28;20221;-29
2023/01/24 15:16:32;;;;;;;8.93;5.33;;;;;;;;;;5052153;28;20545;-30
2023/01/24 15:19:08;;;;;;;10.63;6.50;;;;;;;;;;5052446;28;20244;-28
2023/01/24 15:21:42;;;;;;;8.20;5.63;;;;;;;;;;5052864;28;20213;-29
2023/01/24 15:24:21;;;;;;;9.27;5.30;;;;;;;;;;5048435;28;20684;-27
2023/01/24 15:27:02;;;;;;;9.30;5.67;;;;;;;;;;5052510;28;20217;-28
2023/01/24 15:29:48;;;;;;;9.13;6.60;;;;;;;;;;5051434;28;20210;-32
2023/01/24 15:35:22;;;;;;;10.53;6.27;;;;;;;;;;5081147;23;20249;-28
2023/01/24 15:38:05;;;;;;;8.33;5.43;;;;;;;;;;5075831;28;20213;-28
2023/01/24 15:40:36;;;;;;;9.87;5.90;;;;;;;;;;5075947;28;20224;-28
2023/01/24 15:47:44;;;;;;;8.80;5.47;;;;;;;;;;5075640;28;20709;-29
2023/01/24 15:52:11;;;;;;;8.27;5.33;;;;;;;;;;5076395;28;20226;-27
2023/01/24 15:54:48;;;;;;;11.03;5.20;;;;;;;;;;5075509;28;20225;-30
2023/01/24 15:57:42;;;;;;;9.47;6.33;;;;;;;;;;5075700;28;20208;-29
2023/01/24 16:00:33;;;;;;;9.30;6.33;;;;;;;;;;5075575;28;20612;-26
2023/01/24 16:03:18;;;;;;;11.10;7.87;;;;;;;;;;5075516;28;20218;-27
2023/01/24 16:06:02;;;;;;;13.23;7.03;;;;;;;;;;5075881;28;20196;-28
2023/01/24 16:08:57;;;;;;;;;;;;;;;;;;;;;
2023/01/24 16:11:28;;;;;;;11.17;6.97;;;;;;;;;;5075943;28;20209;-29
2023/01/24 16:14:00;;;;;;;9.43;6.37;;;;;;;;;;5074915;28;20268;-29
2023/01/24 16:16:41;;;;;;;12.17;7.90;;;;;;;;;;5075252;28;20209;-31
2023/01/24 16:19:17;;;;;;;13.20;7.13;;;;;;;;;;5075229;28;20231;-27
2023/01/24 16:21:49;;;;;;;10.90;6.97;;;;;;;;;;5075318;28;20740;-30
2023/01/24 16:24:20;;;;;;;11.53;6.17;;;;;;;;;;5075179;28;20232;-29
2023/01/24 16:27:05;;;;;;;10.43;6.57;;;;;;;;;;5075532;28;20292;-30
2023/01/24 16:29:36;;;;;;;12.37;7.10;;;;;;;;;;5073507;28;20293;-30
2023/01/24 16:35:41;;;;;;;14.00;7.63;;;;;;;;;;5073142;28;20299;-30
2023/01/24 16:38:22;;;;;;;13.00;7.53;;;;;;;;;;5075127;28;20283;-30
2023/01/24 16:41:08;;;;;;;11.47;7.13;;;;;;;;;;5075090;28;20212;-29
2023/01/24 16:43:56;;;;;;;12.43;8.40;;;;;;;;;;5074950;22;20321;-27
2023/01/24 16:46:41;;;;;;;11.37;6.60;;;;;;;;;;5055540;28;20511;-29
2023/01/24 16:49:24;;;;;;;13.90;7.57;;;;;;;;;;5055194;28;20526;-29
2023/01/24 16:58:29;;;;;;;12.00;6.97;;;;;;;;;;5034100;28;20199;-26
2023/01/24 17:01:35;;;;;;;14.40;7.07;;;;;;;;;;5034159;28;20214;-26
2023/01/24 17:07:24;;;;;;;14.73;8.50;;;;;;;;;;5033815;28;20178;-28
2023/01/24 17:13:12;;;;;;;13.00;8.30;;;;;;;;;;5028081;28;20317;-27
2023/01/24 17:15:47;;;;;;;13.47;6.90;;;;;;;;;;5033482;28;20217;-27
2023/01/24 17:18:38;;;;;;;14.70;8.23;;;;;;;;;;5033735;28;20504;-28
2023/01/24 17:21:25;;;;;;;14.43;8.57;;;;;;;;;;5033687;28;20206;-28
2023/01/24 17:24:24;;;;;;;16.10;8.57;;;;;;;;;;5033031;28;20228;-27
2023/01/24 17:33:20;;;;;;;14.77;7.23;;;;;;;;;;5031346;28;20222;-26
2023/01/24 17:35:52;;;;;;;13.77;8.70;;;;;;;;;;5032407;28;20203;-27
2023/01/24 17:38:27;;;;;;;12.90;7.43;;;;;;;;;;5032370;28;20293;-29
2023/01/24 17:44:08;;;;;;;15.20;8.13;;;;;;;;;;5031575;28;20220;-28
2023/01/24 17:46:49;;;;;;;13.13;9.17;;;;;;;;;;5031366;28;20210;-27
2023/01/24 17:49:22;;;;;;;14.83;8.80;;;;;;;;;;5032114;28;20233;-30
2023/01/24 17:51:58;;;;;;;11.07;7.07;;;;;;;;;;5031996;28;20206;-31
2023/01/24 17:54:31;;;;;;;14.20;8.47;;;;;;;;;;5030860;28;20230;-28
2023/01/24 18:00:10;;;;;;;11.87;8.43;;;;;;;;;;5032005;28;20166;-26
2023/01/24 18:05:44;;;;;;;15.33;9.77;;;;;;;;;;5031975;28;20209;-29
2023/01/24 18:08:16;;;;;;;13.93;8.03;;;;;;;;;;5030779;28;20296;-26
2023/01/24 18:10:50;;;;;;;13.53;7.77;;;;;;;;;;5031129;28;20210;-28
2023/01/24 18:13:25;;;;;;;10.77;6.63;;;;;;;;;;5031355;28;20234;-27
2023/01/24 18:16:05;;;;;;;10.20;7.03;;;;;;;;;;5031101;28;20734;-30
2023/01/24 18:18:36;;;;;;;14.77;7.63;;;;;;;;;;5031798;28;20286;-31
2023/01/24 18:21:26;;;;;;;13.10;8.20;;;;;;;;;;5032336;28;20410;-29
2023/01/24 18:24:06;;;;;;;13.13;7.57;;;;;;;;;;5031164;28;20711;-31
2023/01/24 18:29:51;;;;;;;17.97;8.20;;;;;;;;;;5030565;28;20289;-28
2023/01/24 18:32:23;;;;;;;13.63;7.67;;;;;;;;;;5031164;28;20838;-29
2023/01/24 18:34:54;;;;;;;12.03;8.70;;;;;;;;;;5031531;28;20230;-29
2023/01/24 18:40:32;;;;;;;31.23;18.90;;;;;;;;;;5030758;28;20169;-30
2023/01/24 18:46:10;;;;;;;25.50;14.30;;;;;;;;;;5030778;28;20241;-24
2023/01/24 18:48:41;;;;;;;20.63;12.67;;;;;;;;;;5031543;28;20214;-28